Portada
METAR-TAF:

METAR-TAF

Aeropuertos :

Granada, España

Aeropuerto de Granada

latitud: 37-11N, longitud: 003-47W, altitud: 567 m

Observación

El informe se hizo hace 11 minutos, a las 16:30 UTC
Viento 11 kt del oeste, variando entre oeste-suroeste y norte-noroeste
Temperatura 29°C
Humedad 35%
Presión 1015 hPa
Visibilidad 10 km o más
sin nubes por debajo de 1500 m y sin presencia de cumulonimbus.

METAR: LEGR 281630Z 28011KT 250V330 CAVOK 29/12 Q1015

Hora: 18:41 (16:41 UTC)

Pronóstico

El informe se hizo hace 2 horas y 41 minutos, a las 14:00 UTC
Pronóstico válido del 28 a las 15 UTC al 29 a las 15 UTC
Viento 9 kt del oeste
Visibilidad 10 km o más
sin nubes por debajo de 1500 m y sin presencia de cumulonimbus.

TAF: LEGR 281400Z 2815/2915 26009KT CAVOK TX26/2815Z TN16/2905Z

Observaciones y pronósticos meteorológicos de más de 4000 aeropuertos (mensajes METAR y TAF).

Los puntos amarillos y rojos representan las estaciones disponibles.

Ponga el ratón en el punto deseado para ver el nombre de la estación.

Haga clic para ver las observaciones y los pronósticos meteorológicos.

Para cambiar el mapa : haga clic en los botones verdes con una cruz de color negro para hacer un zoom, en el botón verde con un guión para alejar o en las flechas verdes para mapas adyacentes.


METAR-TAF: